createdAt,value
2018-12-31T00:00:21.724Z,7.56
2018-12-31T00:01:21.786Z,7.52
2018-12-31T00:02:21.749Z,7.59
2018-12-31T00:03:21.762Z,7.74
2018-12-31T00:04:21.778Z,7.62
2018-12-31T00:05:21.784Z,7.58
2018-12-31T00:06:21.800Z,7.50
2018-12-31T00:07:21.819Z,7.49
2018-12-31T00:08:21.826Z,7.47
2018-12-31T00:09:21.841Z,7.45
2018-12-31T00:11:21.875Z,7.66
2018-12-31T00:12:21.941Z,7.62
2018-12-31T00:13:21.893Z,7.52
2018-12-31T00:14:21.912Z,7.47
2018-12-31T00:15:21.919Z,7.44
2018-12-31T00:16:21.937Z,7.63
2018-12-31T00:17:21.946Z,7.67
2018-12-31T00:18:21.959Z,7.62
2018-12-31T00:19:21.979Z,7.63
2018-12-31T00:20:21.989Z,7.89
2018-12-31T00:21:22.007Z,7.72
2018-12-31T00:22:22.012Z,7.58
2018-12-31T00:23:22.025Z,7.55
2018-12-31T00:24:22.035Z,7.69
2018-12-31T00:25:22.049Z,7.56
2018-12-31T00:26:22.101Z,7.49
2018-12-31T00:27:22.080Z,7.37
2018-12-31T00:28:22.096Z,7.35
2018-12-31T00:29:22.176Z,7.45
2018-12-31T00:30:22.120Z,7.44
2018-12-31T00:31:22.130Z,7.49
2018-12-31T00:32:22.142Z,7.47
2018-12-31T00:33:22.155Z,7.53
2018-12-31T00:34:22.171Z,7.49
2018-12-31T00:35:22.195Z,7.50
2018-12-31T00:36:22.195Z,7.49
2018-12-31T00:37:22.214Z,7.34
2018-12-31T00:38:22.244Z,7.55
2018-12-31T00:39:22.239Z,7.62
2018-12-31T00:40:22.282Z,7.37
2018-12-31T00:41:22.263Z,7.37
2018-12-31T00:42:22.273Z,7.49
2018-12-31T00:43:22.288Z,7.44
2018-12-31T00:44:22.304Z,7.58
2018-12-31T00:45:22.331Z,7.44
2018-12-31T00:46:22.344Z,7.44
2018-12-31T00:48:22.359Z,7.60
2018-12-31T00:49:22.369Z,7.56
2018-12-31T00:50:22.383Z,7.59
2018-12-31T00:51:22.403Z,7.69
2018-12-31T00:52:22.421Z,7.56
2018-12-31T00:53:22.426Z,7.44
2018-12-31T00:54:22.464Z,7.42
2018-12-31T00:55:22.451Z,7.31
2018-12-31T00:56:22.470Z,7.42
2018-12-31T00:57:22.479Z,7.47
2018-12-31T00:58:22.495Z,7.58
2018-12-31T00:59:22.504Z,7.59
2018-12-31T01:00:22.514Z,7.49
2018-12-31T01:01:22.532Z,7.47
2018-12-31T01:02:22.554Z,7.71
2018-12-31T01:03:22.595Z,7.63
2018-12-31T01:04:22.568Z,7.47
2018-12-31T01:05:22.591Z,7.56
2018-12-31T01:06:22.595Z,7.59
2018-12-31T01:07:22.631Z,7.56
2018-12-31T01:08:22.622Z,7.59
2018-12-31T01:09:22.649Z,7.47
2018-12-31T01:10:22.670Z,7.44
2018-12-31T01:11:22.668Z,7.50
2018-12-31T01:12:22.674Z,7.44
2018-12-31T01:13:22.690Z,7.44
2018-12-31T01:14:22.794Z,7.59
2018-12-31T01:15:22.715Z,7.75
2018-12-31T01:16:22.733Z,7.62
2018-12-31T01:17:22.756Z,7.50
2018-12-31T01:18:22.759Z,7.63
2018-12-31T01:19:22.778Z,7.56
2018-12-31T01:20:22.787Z,7.55
2018-12-31T01:21:22.796Z,7.49
2018-12-31T01:22:22.814Z,7.52
2018-12-31T01:24:22.877Z,7.66
2018-12-31T01:25:22.855Z,7.69
2018-12-31T01:26:22.861Z,7.79
2018-12-31T01:27:22.880Z,7.84
2018-12-31T01:28:22.908Z,7.63
2018-12-31T01:29:22.914Z,7.67
2018-12-31T01:30:22.914Z,7.72
2018-12-31T01:31:23.044Z,7.75
2018-12-31T01:32:22.952Z,7.72
2018-12-31T01:33:22.972Z,7.69
2018-12-31T01:34:22.985Z,7.66
2018-12-31T01:35:22.999Z,7.49
2018-12-31T01:36:22.996Z,7.59
2018-12-31T01:37:23.020Z,7.59
2018-12-31T01:38:23.026Z,7.52
2018-12-31T01:39:23.038Z,7.53
2018-12-31T01:40:23.063Z,7.66
2018-12-31T01:41:23.063Z,7.63
2018-12-31T01:42:23.079Z,7.49
2018-12-31T01:43:23.091Z,7.50
2018-12-31T01:44:23.111Z,7.45
2018-12-31T01:45:23.122Z,7.52
2018-12-31T01:46:23.141Z,7.44
2018-12-31T01:47:23.148Z,7.49
2018-12-31T01:48:23.220Z,7.47
2018-12-31T01:49:23.174Z,7.45
2018-12-31T01:50:23.202Z,7.45
2018-12-31T01:51:23.242Z,7.81
2018-12-31T01:52:23.232Z,7.71
2018-12-31T01:53:23.226Z,7.67
2018-12-31T01:54:23.239Z,7.44
2018-12-31T01:55:23.254Z,7.50
2018-12-31T01:56:23.276Z,7.45
2018-12-31T01:57:23.292Z,7.47
2018-12-31T01:58:23.299Z,7.60
2018-12-31T01:59:23.304Z,7.50
2018-12-31T02:00:23.371Z,7.42
2018-12-31T02:01:23.351Z,7.60
2018-12-31T02:02:23.358Z,7.47
2018-12-31T02:03:23.384Z,7.53
2018-12-31T02:04:23.375Z,7.56
2018-12-31T02:05:23.419Z,7.49
2018-12-31T02:06:23.405Z,7.44
2018-12-31T02:07:23.441Z,7.50
2018-12-31T02:08:23.441Z,7.45
2018-12-31T02:09:23.446Z,7.59
2018-12-31T02:10:23.456Z,7.55
2018-12-31T02:11:23.475Z,7.49
2018-12-31T02:13:23.505Z,7.71
2018-12-31T02:14:23.505Z,7.59
2018-12-31T02:15:23.524Z,7.58
2018-12-31T02:16:23.544Z,7.67
2018-12-31T02:17:23.560Z,7.60
2018-12-31T02:18:23.577Z,7.63
2018-12-31T02:19:23.579Z,7.60
2018-12-31T02:20:23.599Z,7.59
2018-12-31T02:21:23.604Z,7.49
2018-12-31T02:22:23.617Z,7.69
2018-12-31T02:23:23.634Z,7.49
2018-12-31T02:24:23.734Z,7.49
2018-12-31T02:25:23.666Z,7.63
2018-12-31T02:26:23.688Z,7.62
2018-12-31T02:27:23.687Z,7.69
2018-12-31T02:28:23.723Z,7.59
2018-12-31T02:30:23.723Z,7.49
2018-12-31T02:31:23.763Z,7.58
2018-12-31T02:32:23.754Z,7.58
2018-12-31T02:33:23.785Z,7.75
2018-12-31T02:34:23.781Z,7.79
2018-12-31T02:35:23.791Z,7.71
2018-12-31T02:36:23.812Z,7.81
2018-12-31T02:37:23.822Z,7.59
2018-12-31T02:38:23.860Z,7.45
2018-12-31T02:39:23.853Z,7.59
2018-12-31T02:40:23.878Z,7.56
2018-12-31T02:41:23.876Z,7.55
2018-12-31T02:42:23.913Z,7.47
2018-12-31T02:43:23.915Z,7.49
2018-12-31T02:44:23.917Z,7.60
2018-12-31T02:45:23.943Z,7.53
2018-12-31T02:46:23.949Z,7.59
2018-12-31T02:47:23.954Z,7.34
2018-12-31T02:48:23.972Z,7.58
2018-12-31T02:49:23.991Z,7.41
2018-12-31T02:50:24.005Z,7.58
2018-12-31T02:51:24.013Z,7.52
2018-12-31T02:52:24.025Z,7.62
2018-12-31T02:53:24.039Z,7.67
2018-12-31T02:54:24.062Z,7.69
2018-12-31T02:55:24.066Z,7.56
2018-12-31T02:56:24.097Z,7.52
2018-12-31T02:57:24.100Z,7.49
2018-12-31T02:58:24.110Z,7.38
2018-12-31T02:59:24.119Z,7.44
2018-12-31T03:00:24.134Z,7.45
2018-12-31T03:01:24.148Z,7.41
2018-12-31T03:02:24.156Z,7.41
2018-12-31T03:03:24.188Z,7.44
2018-12-31T03:04:24.186Z,7.47
2018-12-31T03:05:24.204Z,7.41
2018-12-31T03:06:24.222Z,7.38
2018-12-31T03:07:24.264Z,7.42
2018-12-31T03:08:24.264Z,7.49
2018-12-31T03:09:24.252Z,7.49
2018-12-31T03:10:24.269Z,7.49
2018-12-31T03:11:24.314Z,7.45
2018-12-31T03:12:24.297Z,7.69
2018-12-31T03:13:24.319Z,7.66
2018-12-31T03:14:24.321Z,7.63
2018-12-31T03:15:24.338Z,7.58
2018-12-31T03:16:24.359Z,7.62
2018-12-31T03:17:24.366Z,7.47
2018-12-31T03:19:24.386Z,7.42
2018-12-31T03:20:24.407Z,7.47
2018-12-31T03:21:24.413Z,7.44
2018-12-31T03:22:24.438Z,7.49
2018-12-31T03:23:24.457Z,7.38
2018-12-31T03:24:24.461Z,7.45
2018-12-31T03:25:24.478Z,7.84
2018-12-31T03:26:24.491Z,7.67
2018-12-31T03:27:24.513Z,7.69
2018-12-31T03:28:24.520Z,7.59
2018-12-31T03:29:24.523Z,7.52
2018-12-31T03:30:24.546Z,7.62
2018-12-31T03:31:24.720Z,7.67
2018-12-31T03:32:24.568Z,7.59
2018-12-31T03:33:24.582Z,7.66
2018-12-31T03:34:24.595Z,7.59
2018-12-31T03:35:24.621Z,7.63
2018-12-31T03:36:24.615Z,7.71
2018-12-31T03:38:24.643Z,7.59
2018-12-31T03:39:26.352Z,7.47
2018-12-31T03:40:24.675Z,7.69
2018-12-31T03:41:24.701Z,7.63
2018-12-31T03:42:24.735Z,7.45
2018-12-31T03:43:24.752Z,7.44
2018-12-31T03:44:24.723Z,7.49
2018-12-31T03:45:24.739Z,7.62
2018-12-31T03:46:24.753Z,7.63
2018-12-31T03:47:24.777Z,7.49
2018-12-31T03:48:24.843Z,7.52
2018-12-31T03:49:24.812Z,7.49
2018-12-31T03:50:24.810Z,7.74
2018-12-31T03:52:24.869Z,7.81
2018-12-31T03:53:24.843Z,7.77
2018-12-31T03:54:24.882Z,7.78
2018-12-31T03:55:24.874Z,7.66
2018-12-31T03:56:24.892Z,7.66
2018-12-31T03:57:24.911Z,7.67
2018-12-31T03:58:24.918Z,7.67
2018-12-31T03:59:24.930Z,7.69
2018-12-31T04:00:24.940Z,7.62
2018-12-31T04:01:24.958Z,7.53
2018-12-31T04:02:24.968Z,7.59
2018-12-31T04:03:24.978Z,7.60
2018-12-31T04:04:25.018Z,7.47
2018-12-31T04:05:25.023Z,7.38
2018-12-31T04:06:25.048Z,7.49
2018-12-31T04:07:25.072Z,7.59
2018-12-31T04:08:25.057Z,7.55
2018-12-31T04:09:25.063Z,7.59
2018-12-31T04:10:25.070Z,7.45
2018-12-31T04:11:25.099Z,7.44
2018-12-31T04:13:25.115Z,7.63
2018-12-31T04:14:25.137Z,7.62
2018-12-31T04:15:25.143Z,7.56
2018-12-31T04:16:25.160Z,7.63
2018-12-31T04:17:25.168Z,7.50
2018-12-31T04:18:25.182Z,7.52
2018-12-31T04:21:25.230Z,7.71
2018-12-31T04:22:25.250Z,7.75
2018-12-31T04:23:25.251Z,7.72
2018-12-31T04:24:25.260Z,7.67
2018-12-31T04:25:25.275Z,7.45
2018-12-31T04:26:25.283Z,7.67
2018-12-31T04:27:25.308Z,7.74
2018-12-31T04:28:25.341Z,7.63
2018-12-31T04:29:25.341Z,7.72
2018-12-31T04:30:25.370Z,7.81
2018-12-31T04:31:25.376Z,7.82
2018-12-31T04:32:25.392Z,7.79
2018-12-31T04:33:25.385Z,7.78
2018-12-31T04:34:25.398Z,7.84
2018-12-31T04:35:25.410Z,7.93
2018-12-31T04:36:25.420Z,7.90
2018-12-31T04:37:25.568Z,7.89
2018-12-31T04:39:25.599Z,8.00
2018-12-31T04:40:25.479Z,7.63
2018-12-31T04:41:25.499Z,7.79
2018-12-31T04:42:25.514Z,7.82
2018-12-31T04:43:25.520Z,7.72
2018-12-31T04:44:25.533Z,7.82
2018-12-31T04:45:25.553Z,7.79
2018-12-31T04:47:25.570Z,7.82
2018-12-31T04:48:25.588Z,7.81
2018-12-31T04:49:25.603Z,7.71
2018-12-31T04:50:25.646Z,7.78
2018-12-31T04:51:25.633Z,7.71
2018-12-31T04:52:25.644Z,7.66
2018-12-31T04:54:25.700Z,7.69
2018-12-31T04:55:25.680Z,7.58
2018-12-31T04:56:25.695Z,7.84
2018-12-31T04:57:25.710Z,7.82
2018-12-31T04:58:25.752Z,7.87
2018-12-31T04:59:25.734Z,7.84
2018-12-31T05:00:25.747Z,7.74
2018-12-31T05:01:25.787Z,7.72
2018-12-31T05:02:25.812Z,7.74
2018-12-31T05:03:25.801Z,7.87
2018-12-31T05:04:25.851Z,7.78
2018-12-31T05:05:25.814Z,7.71
2018-12-31T05:06:25.832Z,7.84
2018-12-31T05:07:25.862Z,7.85
2018-12-31T05:09:25.879Z,7.75
2018-12-31T05:10:25.883Z,7.82
2018-12-31T05:11:25.907Z,7.84
2018-12-31T05:12:25.928Z,7.90
2018-12-31T05:13:25.921Z,7.84
2018-12-31T05:14:25.942Z,7.84
2018-12-31T05:15:25.952Z,7.78
2018-12-31T05:16:25.966Z,7.85
2018-12-31T05:18:25.998Z,7.84
2018-12-31T05:19:26.011Z,7.87
2018-12-31T05:20:26.016Z,7.94
2018-12-31T05:21:26.032Z,8.00
2018-12-31T05:22:26.167Z,7.84
2018-12-31T05:23:26.067Z,7.78
2018-12-31T05:24:26.083Z,7.53
2018-12-31T05:25:26.087Z,7.56
2018-12-31T05:26:26.102Z,7.47
2018-12-31T05:27:26.110Z,7.55
2018-12-31T05:28:26.131Z,7.59
2018-12-31T05:29:26.144Z,7.45
2018-12-31T05:30:26.235Z,7.47
2018-12-31T05:31:26.165Z,7.84
2018-12-31T05:32:26.178Z,7.87
2018-12-31T05:33:26.194Z,7.85
2018-12-31T05:34:26.210Z,7.81
2018-12-31T05:35:26.219Z,7.77
2018-12-31T05:36:26.239Z,7.63
2018-12-31T05:37:26.248Z,7.58
2018-12-31T05:38:26.262Z,7.93
2018-12-31T05:39:26.286Z,7.82
2018-12-31T05:40:26.285Z,7.62
2018-12-31T05:41:26.309Z,7.47
2018-12-31T05:42:26.315Z,7.58
2018-12-31T05:43:26.326Z,7.69
2018-12-31T05:44:26.342Z,7.79
2018-12-31T05:45:26.379Z,7.63
2018-12-31T05:46:26.368Z,7.82
2018-12-31T05:47:26.383Z,7.94
2018-12-31T05:48:26.399Z,7.85
2018-12-31T05:49:26.418Z,7.92
2018-12-31T05:50:26.427Z,7.85
2018-12-31T05:51:26.431Z,7.77
2018-12-31T05:52:26.487Z,7.82
2018-12-31T05:53:26.473Z,7.84
2018-12-31T05:54:26.479Z,7.82
2018-12-31T05:56:26.514Z,7.87
2018-12-31T05:57:26.537Z,7.96
2018-12-31T05:58:26.537Z,7.82
2018-12-31T05:59:26.545Z,7.87
2018-12-31T06:00:26.559Z,7.94
2018-12-31T06:01:26.588Z,7.89
2018-12-31T06:02:26.586Z,7.82
2018-12-31T06:04:26.621Z,7.84
2018-12-31T06:05:26.620Z,7.87
2018-12-31T06:06:26.635Z,7.78
2018-12-31T06:08:26.672Z,7.63
2018-12-31T06:09:26.678Z,7.69
2018-12-31T06:10:26.690Z,7.85
2018-12-31T06:11:26.709Z,7.85
2018-12-31T06:12:26.720Z,7.93
2018-12-31T06:13:26.745Z,7.81
2018-12-31T06:14:26.744Z,7.78
2018-12-31T06:15:26.764Z,7.84
2018-12-31T06:16:26.775Z,7.85
2018-12-31T06:17:26.801Z,7.92
2018-12-31T06:18:26.799Z,7.87
2018-12-31T06:19:26.814Z,7.81
2018-12-31T06:20:27.233Z,7.85
2018-12-31T06:21:26.875Z,7.79
2018-12-31T06:22:26.874Z,7.84
2018-12-31T06:23:26.880Z,7.89
2018-12-31T06:24:26.902Z,7.77
2018-12-31T06:25:26.899Z,7.71
2018-12-31T06:26:26.905Z,7.77
2018-12-31T06:27:26.921Z,7.67
2018-12-31T06:28:26.933Z,7.81
2018-12-31T06:29:26.954Z,7.84
2018-12-31T06:30:26.962Z,7.93
2018-12-31T06:31:26.981Z,7.92
2018-12-31T06:32:27.343Z,7.90
2018-12-31T06:33:27.031Z,7.93
2018-12-31T06:34:27.025Z,7.89
2018-12-31T06:35:27.039Z,7.97
2018-12-31T06:36:27.047Z,7.92
2018-12-31T06:37:27.060Z,7.93
2018-12-31T06:38:27.093Z,7.92
2018-12-31T06:39:27.107Z,7.93
2018-12-31T06:40:28.589Z,7.92
2018-12-31T06:42:27.130Z,7.96
2018-12-31T06:43:27.147Z,7.87
2018-12-31T06:44:27.167Z,7.84
2018-12-31T06:45:27.186Z,7.81
2018-12-31T06:46:27.192Z,7.84
2018-12-31T06:47:27.216Z,7.85
2018-12-31T06:48:27.229Z,7.81
2018-12-31T06:49:27.479Z,7.84
2018-12-31T06:50:27.240Z,7.82
2018-12-31T06:51:27.252Z,7.78
2018-12-31T06:52:27.261Z,7.67
2018-12-31T06:53:27.297Z,7.81
2018-12-31T06:54:27.450Z,7.84
2018-12-31T06:55:27.311Z,7.81
2018-12-31T06:56:27.321Z,7.85
2018-12-31T06:57:27.334Z,7.85
2018-12-31T06:58:27.368Z,7.81
2018-12-31T06:59:27.374Z,7.84
2018-12-31T07:00:27.389Z,7.90
2018-12-31T07:01:27.393Z,7.90
2018-12-31T07:02:27.413Z,7.92
2018-12-31T07:03:27.429Z,7.97
2018-12-31T07:04:27.591Z,7.92
2018-12-31T07:05:27.452Z,7.81
2018-12-31T07:06:27.454Z,7.82
2018-12-31T07:07:27.474Z,7.81
2018-12-31T07:08:27.504Z,7.78
2018-12-31T07:09:27.511Z,7.78
2018-12-31T07:10:27.511Z,7.78
2018-12-31T07:11:27.559Z,7.92
2018-12-31T07:12:27.556Z,7.81
2018-12-31T07:13:29.370Z,7.93
2018-12-31T07:14:27.585Z,8.03
2018-12-31T07:15:27.590Z,7.92
2018-12-31T07:16:27.602Z,8.02
2018-12-31T07:17:27.628Z,8.04
2018-12-31T07:18:27.625Z,7.85
2018-12-31T07:19:27.646Z,7.97
2018-12-31T07:20:27.650Z,7.99
2018-12-31T07:21:27.678Z,7.92
2018-12-31T07:22:27.678Z,7.90
2018-12-31T07:23:27.713Z,7.93
2018-12-31T07:24:27.716Z,8.02
2018-12-31T07:25:27.724Z,8.10
2018-12-31T07:26:27.735Z,8.02
2018-12-31T07:27:27.757Z,8.00
2018-12-31T07:28:27.770Z,7.99
2018-12-31T07:29:27.784Z,8.02
2018-12-31T07:30:27.796Z,8.07
2018-12-31T07:31:27.812Z,7.93
2018-12-31T07:32:27.818Z,7.99
2018-12-31T07:33:27.837Z,8.07
2018-12-31T07:34:27.848Z,8.07
2018-12-31T07:35:27.871Z,8.12
2018-12-31T07:36:27.877Z,8.10
2018-12-31T07:37:27.885Z,8.12
2018-12-31T07:39:27.933Z,7.93
2018-12-31T07:40:27.930Z,8.03
2018-12-31T07:41:27.951Z,7.96
2018-12-31T07:42:27.961Z,8.04
2018-12-31T07:43:27.993Z,8.03
2018-12-31T07:44:27.993Z,7.89
2018-12-31T07:45:28.005Z,7.96
2018-12-31T07:46:28.010Z,8.07
2018-12-31T07:47:28.026Z,7.99
2018-12-31T07:48:28.036Z,8.02
2018-12-31T07:49:28.059Z,7.92
2018-12-31T07:50:28.255Z,8.02
2018-12-31T07:51:28.081Z,8.03
2018-12-31T07:52:28.095Z,7.87
2018-12-31T07:54:28.212Z,7.89
2018-12-31T07:55:28.139Z,7.90
2018-12-31T07:56:28.184Z,7.89
2018-12-31T07:57:28.165Z,7.99
2018-12-31T07:58:28.178Z,7.92
2018-12-31T07:59:28.192Z,8.02
2018-12-31T08:00:28.221Z,8.02
2018-12-31T08:01:28.220Z,7.89
2018-12-31T08:02:28.229Z,7.85
2018-12-31T08:03:28.248Z,7.96
2018-12-31T08:04:28.264Z,7.93
2018-12-31T08:05:28.278Z,7.96
2018-12-31T08:06:28.293Z,8.02
2018-12-31T08:07:28.323Z,8.04
2018-12-31T08:08:28.315Z,8.03
2018-12-31T08:09:28.329Z,7.96
2018-12-31T08:10:28.338Z,8.02
2018-12-31T08:11:28.405Z,8.03
2018-12-31T08:12:28.449Z,8.02
2018-12-31T08:13:28.405Z,7.96
2018-12-31T08:14:28.410Z,7.94
2018-12-31T08:15:28.429Z,8.02
2018-12-31T08:16:28.424Z,7.81
2018-12-31T08:17:28.453Z,7.90
2018-12-31T08:18:28.453Z,7.92
2018-12-31T08:19:28.462Z,7.92
2018-12-31T08:20:28.481Z,7.96
2018-12-31T08:21:28.574Z,7.89
2018-12-31T08:22:28.509Z,7.92
2018-12-31T08:23:28.525Z,7.92
2018-12-31T08:24:28.535Z,8.03
2018-12-31T08:25:28.567Z,8.02
2018-12-31T08:26:28.571Z,8.08
2018-12-31T08:27:28.577Z,8.02
2018-12-31T08:28:28.662Z,8.02
2018-12-31T08:29:28.624Z,7.94
2018-12-31T08:30:28.631Z,7.87
2018-12-31T08:31:28.628Z,7.92
2018-12-31T08:32:28.662Z,8.08
2018-12-31T08:33:28.674Z,8.08
2018-12-31T08:34:28.671Z,7.94
2018-12-31T08:35:28.697Z,7.96
2018-12-31T08:36:28.982Z,8.12
2018-12-31T08:37:28.712Z,8.04
2018-12-31T08:38:28.728Z,8.04
2018-12-31T08:39:28.751Z,7.92
2018-12-31T08:40:28.760Z,8.02
2018-12-31T08:41:28.773Z,7.94
2018-12-31T08:42:28.781Z,7.96
2018-12-31T08:43:28.802Z,7.93
2018-12-31T08:44:28.815Z,7.94
2018-12-31T08:45:28.839Z,7.89
2018-12-31T08:47:28.850Z,8.03
2018-12-31T08:48:29.248Z,8.15
2018-12-31T08:49:28.877Z,8.14
2018-12-31T08:50:28.899Z,8.20
2018-12-31T08:51:28.914Z,8.04
2018-12-31T08:52:28.929Z,8.10
2018-12-31T08:53:29.178Z,8.04
2018-12-31T08:54:28.945Z,8.14
2018-12-31T08:55:28.960Z,8.07
2018-12-31T08:56:28.992Z,8.08
2018-12-31T08:57:29.225Z,8.11
2018-12-31T08:58:29.100Z,8.21
2018-12-31T08:59:29.015Z,8.17
2018-12-31T09:00:29.040Z,8.11
2018-12-31T09:01:29.047Z,8.08
2018-12-31T09:02:29.060Z,8.07
2018-12-31T09:03:29.076Z,8.04
2018-12-31T09:04:29.123Z,8.02
2018-12-31T09:05:29.111Z,8.07
2018-12-31T09:06:29.115Z,8.11
2018-12-31T09:07:29.127Z,8.02
2018-12-31T09:08:29.142Z,8.07
2018-12-31T09:09:29.174Z,8.04
2018-12-31T09:10:29.179Z,8.21
2018-12-31T09:11:29.193Z,8.17
2018-12-31T09:12:29.208Z,8.04
2018-12-31T09:14:29.222Z,8.20
2018-12-31T09:15:29.309Z,8.32
2018-12-31T09:16:29.251Z,8.17
2018-12-31T09:17:29.295Z,8.15
2018-12-31T09:18:29.282Z,8.11
2018-12-31T09:19:29.297Z,8.11
2018-12-31T09:20:29.326Z,8.12
2018-12-31T09:21:29.321Z,8.11
2018-12-31T09:23:29.357Z,8.04
2018-12-31T09:24:29.363Z,7.96
2018-12-31T09:25:29.403Z,8.08
2018-12-31T09:26:29.460Z,8.14
2018-12-31T09:27:29.421Z,8.03
2018-12-31T09:28:29.421Z,7.97
2018-12-31T09:29:29.432Z,8.14
2018-12-31T09:30:29.452Z,8.15
2018-12-31T09:31:29.459Z,8.17
2018-12-31T09:32:29.474Z,8.22
2018-12-31T09:33:29.490Z,8.22
2018-12-31T09:34:29.501Z,8.11
2018-12-31T09:35:29.514Z,8.02
2018-12-31T09:36:29.532Z,8.17
2018-12-31T09:37:29.574Z,8.15
2018-12-31T09:38:29.559Z,8.03
2018-12-31T09:39:29.569Z,8.07
2018-12-31T09:40:29.623Z,8.11
2018-12-31T09:41:29.601Z,8.14
2018-12-31T09:42:29.658Z,8.10
2018-12-31T09:43:29.765Z,8.17
2018-12-31T09:44:29.639Z,8.11
2018-12-31T09:45:29.664Z,8.07
2018-12-31T09:46:29.667Z,8.22
2018-12-31T09:47:29.689Z,8.17
2018-12-31T09:48:29.701Z,8.21
2018-12-31T09:49:29.722Z,8.21
2018-12-31T09:50:29.728Z,8.20
2018-12-31T09:51:29.737Z,8.22
2018-12-31T09:52:29.756Z,8.29
2018-12-31T09:53:29.769Z,8.29
2018-12-31T09:54:29.784Z,8.30
2018-12-31T09:55:29.808Z,8.30
2018-12-31T09:56:29.809Z,8.30
2018-12-31T09:57:29.831Z,8.33
2018-12-31T09:58:29.872Z,8.28
2018-12-31T09:59:29.868Z,8.26
2018-12-31T10:00:29.914Z,8.22
2018-12-31T10:01:29.881Z,8.25
2018-12-31T10:02:29.916Z,8.28
2018-12-31T10:03:29.904Z,8.36
2018-12-31T10:04:29.941Z,8.30
2018-12-31T10:05:29.939Z,8.48
2018-12-31T10:06:29.964Z,8.47
2018-12-31T10:07:29.967Z,8.42
2018-12-31T10:08:29.995Z,8.29
2018-12-31T10:09:29.995Z,8.28
2018-12-31T10:10:30.013Z,8.32
2018-12-31T10:11:30.017Z,8.32
2018-12-31T10:12:30.032Z,8.28
2018-12-31T10:13:30.044Z,8.33
2018-12-31T10:14:30.065Z,8.29
2018-12-31T10:15:30.078Z,8.29
2018-12-31T10:16:30.517Z,8.30
2018-12-31T10:17:30.129Z,8.44
2018-12-31T10:18:30.116Z,8.40
2018-12-31T10:19:30.125Z,8.26
2018-12-31T10:21:30.181Z,8.48
2018-12-31T10:22:30.206Z,8.39
2018-12-31T10:23:30.181Z,8.35
2018-12-31T10:24:30.205Z,8.42
2018-12-31T10:25:30.231Z,8.45
2018-12-31T10:26:30.237Z,8.42
2018-12-31T10:27:30.243Z,8.53
2018-12-31T10:28:30.295Z,8.48
2018-12-31T10:29:35.986Z,8.50
2018-12-31T10:30:30.791Z,8.40
2018-12-31T10:31:30.519Z,8.37
2018-12-31T10:32:30.560Z,8.32
2018-12-31T10:33:30.823Z,8.36
2018-12-31T10:34:30.341Z,8.28
2018-12-31T10:35:30.355Z,8.33
2018-12-31T10:36:30.774Z,8.39
2018-12-31T10:37:30.394Z,8.36
2018-12-31T10:38:30.533Z,8.39
2018-12-31T10:39:30.555Z,8.42
2018-12-31T10:41:30.459Z,8.44
2018-12-31T10:42:30.453Z,8.42
2018-12-31T10:43:30.467Z,8.37
2018-12-31T10:44:30.508Z,8.37
2018-12-31T10:45:30.965Z,8.32
2018-12-31T10:46:30.692Z,8.32
2018-12-31T10:47:30.522Z,8.47
2018-12-31T10:48:30.544Z,8.45
2018-12-31T10:49:30.547Z,8.54
2018-12-31T10:50:30.578Z,8.51
2018-12-31T10:51:30.587Z,8.42
2018-12-31T10:52:30.590Z,8.40
2018-12-31T10:53:31.012Z,8.47
2018-12-31T10:54:30.628Z,8.47
2018-12-31T10:55:30.990Z,8.53
2018-12-31T10:56:30.647Z,8.44
2018-12-31T10:57:30.673Z,8.39
2018-12-31T10:59:31.034Z,8.39
2018-12-31T11:00:30.725Z,8.42
2018-12-31T11:01:31.000Z,8.37
2018-12-31T11:02:31.020Z,8.51
2018-12-31T11:03:31.055Z,8.63
2018-12-31T11:04:31.032Z,8.68
2018-12-31T11:05:30.778Z,8.62
2018-12-31T11:06:30.818Z,8.69
2018-12-31T11:07:31.045Z,8.73
2018-12-31T11:08:30.819Z,8.69
2018-12-31T11:09:30.834Z,8.73
2018-12-31T11:10:30.843Z,8.65
2018-12-31T11:11:31.048Z,8.65
2018-12-31T11:12:31.049Z,8.69
2018-12-31T11:13:31.090Z,8.75
2018-12-31T11:15:30.913Z,8.66
2018-12-31T11:17:30.943Z,8.71
2018-12-31T11:18:30.966Z,8.69
2018-12-31T11:19:30.971Z,8.79
2018-12-31T11:20:30.995Z,8.69
2018-12-31T11:21:31.005Z,8.60
2018-12-31T11:22:31.013Z,8.66
2018-12-31T11:23:31.048Z,8.66
2018-12-31T11:24:31.049Z,8.58
2018-12-31T11:25:31.068Z,8.62
2018-12-31T11:26:31.069Z,8.62
2018-12-31T11:27:31.088Z,8.66
2018-12-31T11:28:31.125Z,8.76
2018-12-31T11:29:31.117Z,8.78
2018-12-31T11:30:31.333Z,8.71
2018-12-31T11:31:31.145Z,8.72
2018-12-31T11:32:31.162Z,8.65
2018-12-31T11:33:31.174Z,8.63
2018-12-31T11:34:31.192Z,8.63
2018-12-31T11:35:31.202Z,8.63
2018-12-31T11:36:32.486Z,8.76
2018-12-31T11:37:34.792Z,8.62
2018-12-31T11:38:31.256Z,8.66
2018-12-31T11:39:31.255Z,8.63
2018-12-31T11:40:31.277Z,8.55
2018-12-31T11:41:31.290Z,8.58
2018-12-31T11:42:31.299Z,8.58
2018-12-31T11:44:31.324Z,8.58
2018-12-31T11:45:31.365Z,8.63
2018-12-31T11:46:31.386Z,8.65
2018-12-31T11:47:31.380Z,8.65
2018-12-31T11:48:31.420Z,8.76
2018-12-31T11:49:31.459Z,8.87
2018-12-31T11:50:31.420Z,8.88
2018-12-31T11:51:52.443Z,8.81
2018-12-31T11:52:31.443Z,8.72
2018-12-31T11:53:31.478Z,8.72
2018-12-31T11:54:31.497Z,8.86
2018-12-31T11:55:31.495Z,8.87
2018-12-31T11:56:31.505Z,8.84
2018-12-31T11:58:31.648Z,8.72
2018-12-31T11:59:31.543Z,8.58
2018-12-31T12:00:31.652Z,8.65
2018-12-31T12:01:31.571Z,8.78
2018-12-31T12:02:31.583Z,8.69
2018-12-31T12:03:31.628Z,8.68
2018-12-31T12:04:31.623Z,8.73
2018-12-31T12:05:31.629Z,8.75
2018-12-31T12:06:31.655Z,8.84
2018-12-31T12:07:31.658Z,8.84
2018-12-31T12:08:31.677Z,8.73
2018-12-31T12:09:31.683Z,8.83
2018-12-31T12:10:31.711Z,8.87
2018-12-31T12:11:31.716Z,8.88
2018-12-31T12:12:31.726Z,8.86
2018-12-31T12:13:31.743Z,8.83
2018-12-31T12:14:31.771Z,8.71
2018-12-31T12:16:31.785Z,8.73
2018-12-31T12:17:31.810Z,8.71
2018-12-31T12:18:31.820Z,8.79
2018-12-31T12:19:31.868Z,8.78
2018-12-31T12:20:52.873Z,8.72
2018-12-31T12:21:31.867Z,8.81
2018-12-31T12:22:31.884Z,8.79
2018-12-31T12:23:31.918Z,8.81
2018-12-31T12:24:31.911Z,8.79
2018-12-31T12:25:31.914Z,8.79
2018-12-31T12:26:31.925Z,8.75
2018-12-31T12:27:31.951Z,8.73
2018-12-31T12:28:31.982Z,8.78
2018-12-31T12:29:31.994Z,8.79
2018-12-31T12:30:31.995Z,8.83
2018-12-31T12:31:32.002Z,8.79
2018-12-31T12:32:32.020Z,8.76
2018-12-31T12:33:32.035Z,8.81
2018-12-31T12:34:32.043Z,8.88
2018-12-31T12:35:32.060Z,8.91
2018-12-31T12:36:32.077Z,8.90
2018-12-31T12:37:32.106Z,8.91
2018-12-31T12:38:32.104Z,8.88
2018-12-31T12:39:32.130Z,8.96
2018-12-31T12:40:32.203Z,8.88
2018-12-31T12:41:32.170Z,8.90
2018-12-31T12:42:32.175Z,8.87
2018-12-31T12:43:32.257Z,8.76
2018-12-31T12:44:32.194Z,8.84
2018-12-31T12:45:32.203Z,8.81
2018-12-31T12:47:32.228Z,8.90
2018-12-31T12:48:32.248Z,8.93
2018-12-31T12:49:32.278Z,8.83
2018-12-31T12:50:32.324Z,8.90
2018-12-31T12:51:32.297Z,8.76
2018-12-31T12:52:32.312Z,8.87
2018-12-31T12:53:32.348Z,8.86
2018-12-31T12:54:32.337Z,8.91
2018-12-31T12:55:32.351Z,8.94
2018-12-31T12:56:32.363Z,8.99
2018-12-31T12:57:32.379Z,8.96
2018-12-31T12:58:32.382Z,9.01
2018-12-31T12:59:32.398Z,8.86
2018-12-31T13:00:32.449Z,8.90
2018-12-31T13:01:32.428Z,8.86
2018-12-31T13:02:32.444Z,8.88
2018-12-31T13:03:32.491Z,8.87
2018-12-31T13:04:32.483Z,8.93
2018-12-31T13:05:32.487Z,8.99
2018-12-31T13:07:32.520Z,9.06
2018-12-31T13:08:32.556Z,9.05
2018-12-31T13:09:32.556Z,8.90
2018-12-31T13:10:32.575Z,8.88
2018-12-31T13:11:32.578Z,8.97
2018-12-31T13:13:32.633Z,8.93
2018-12-31T13:14:32.634Z,9.10
2018-12-31T13:15:32.645Z,9.05
2018-12-31T13:16:32.645Z,8.96
2018-12-31T13:17:32.670Z,9.01
2018-12-31T13:18:32.892Z,8.96
2018-12-31T13:19:32.688Z,8.96
2018-12-31T13:20:32.705Z,8.88
2018-12-31T13:21:32.741Z,8.88
2018-12-31T13:22:32.752Z,8.91
2018-12-31T13:23:32.758Z,8.88
2018-12-31T13:24:32.767Z,8.93
2018-12-31T13:25:32.774Z,8.88
2018-12-31T13:26:32.795Z,8.88
2018-12-31T13:27:32.809Z,8.93
2018-12-31T13:28:32.899Z,8.96
2018-12-31T13:29:32.836Z,9.01
2018-12-31T13:30:33.382Z,8.97
2018-12-31T13:31:32.878Z,8.94
2018-12-31T13:32:32.889Z,8.93
2018-12-31T13:33:32.914Z,9.02
2018-12-31T13:34:32.910Z,9.05
2018-12-31T13:35:32.927Z,9.10
2018-12-31T13:36:32.941Z,9.05
2018-12-31T13:37:32.958Z,8.96
2018-12-31T13:38:32.969Z,8.94
2018-12-31T13:39:32.987Z,8.97
2018-12-31T13:40:34.375Z,9.05
2018-12-31T13:41:33.011Z,9.10
2018-12-31T13:42:33.029Z,8.99
2018-12-31T13:43:33.061Z,9.05
2018-12-31T13:44:33.061Z,9.05
2018-12-31T13:45:33.153Z,9.05
2018-12-31T13:46:33.091Z,9.09
2018-12-31T13:47:33.111Z,9.15
2018-12-31T13:48:33.129Z,9.20
2018-12-31T13:50:33.143Z,9.06
2018-12-31T13:51:33.165Z,9.06
2018-12-31T13:52:33.173Z,9.09
2018-12-31T13:53:33.196Z,9.18
2018-12-31T13:54:33.201Z,9.05
2018-12-31T13:55:33.226Z,9.09